Time;durP1;ratioP1;P1;durP2;ratioP2;P2;SDS_P1;SDS_P2;PMS_P1;PMS_P2;Temp;Humidity;BMP_temperature;BMP_pressure;BME280_temperature;BME280_humidity;BME280_pressure;Samples;Min_cycle;Max_cycle;Signal;HPM_P1;HPM_P2
2021/05/20 00:01:17;;;;;;;8.57;4.63;;;;;;;;;;5010314;28;20014;-79
2021/05/20 00:03:42;;;;;;;9.18;4.70;;;;;;;;;;5010713;28;20021;-79
2021/05/20 00:06:08;;;;;;;6.65;4.25;;;;;;;;;;5009853;28;20014;-79
2021/05/20 00:08:33;;;;;;;8.20;4.37;;;;;;;;;;5008812;28;20025;-79
2021/05/20 00:10:58;;;;;;;10.70;4.53;;;;;;;;;;5010301;28;20014;-79
2021/05/20 00:13:23;;;;;;;8.07;4.70;;;;;;;;;;5009953;28;20033;-79
2021/05/20 00:15:49;;;;;;;7.93;4.73;;;;;;;;;;5008870;28;20154;-79
2021/05/20 00:18:14;;;;;;;8.53;4.77;;;;;;;;;;5025362;28;20021;-79
2021/05/20 00:20:39;;;;;;;7.40;5.27;;;;;;;;;;5010080;28;20050;-79
2021/05/20 00:23:04;;;;;;;7.77;4.40;;;;;;;;;;5008584;28;20423;-79
2021/05/20 00:25:29;;;;;;;8.03;4.80;;;;;;;;;;5010030;28;20038;-79
2021/05/20 00:27:55;;;;;;;9.43;4.97;;;;;;;;;;5008559;28;20018;-79
2021/05/20 00:30:20;;;;;;;8.67;4.90;;;;;;;;;;5008825;28;20433;-79
2021/05/20 00:32:45;;;;;;;8.17;4.70;;;;;;;;;;5009720;28;20029;-79
2021/05/20 00:35:11;;;;;;;15.67;5.57;;;;;;;;;;5009899;28;20549;-79
2021/05/20 00:37:36;;;;;;;9.33;5.13;;;;;;;;;;5008277;28;20013;-79
2021/05/20 00:40:01;;;;;;;13.17;6.53;;;;;;;;;;5009894;28;20010;-79
2021/05/20 00:42:27;;;;;;;10.77;6.67;;;;;;;;;;5009332;28;20109;-79
2021/05/20 00:45:03;;;;;;;11.73;6.47;;;;;;;;;;5024535;28;20526;-79
2021/05/20 00:47:33;;;;;;;10.80;6.90;;;;;;;;;;5009537;28;20155;-79
2021/05/20 00:49:59;;;;;;;10.90;5.90;;;;;;;;;;5009657;28;20104;-79
2021/05/20 00:52:24;;;;;;;9.73;5.40;;;;;;;;;;5008366;28;20106;-79
2021/05/20 00:54:50;;;;;;;12.97;6.57;;;;;;;;;;5008139;28;20026;-79
2021/05/20 00:57:16;;;;;;;9.98;5.80;;;;;;;;;;5009471;28;20889;-79
2021/05/20 00:59:41;;;;;;;9.63;5.40;;;;;;;;;;5009612;28;20018;-79
2021/05/20 01:02:08;;;;;;;14.27;5.87;;;;;;;;;;5008496;28;20109;-79
2021/05/20 01:04:34;;;;;;;9.93;5.30;;;;;;;;;;5009201;28;20192;-79
2021/05/20 01:06:59;;;;;;;9.73;5.63;;;;;;;;;;5008016;28;20220;-79
2021/05/20 01:09:25;;;;;;;10.53;5.50;;;;;;;;;;5009400;28;20014;-79
2021/05/20 01:11:50;;;;;;;12.10;6.10;;;;;;;;;;5009808;28;20510;-79
2021/05/20 01:14:16;;;;;;;13.63;6.10;;;;;;;;;;5007456;28;20164;-79
2021/05/20 01:16:41;;;;;;;12.27;6.50;;;;;;;;;;5006463;28;20010;-79
2021/05/20 01:19:07;;;;;;;11.80;6.20;;;;;;;;;;5007725;28;20030;-79
2021/05/20 01:21:33;;;;;;;12.23;6.70;;;;;;;;;;5004553;28;20014;-79
2021/05/20 01:23:58;;;;;;;10.13;6.50;;;;;;;;;;5008690;28;20407;-79
2021/05/20 01:26:24;;;;;;;12.23;7.17;;;;;;;;;;5009259;28;20022;-79
2021/05/20 01:28:49;;;;;;;10.77;7.00;;;;;;;;;;5008876;28;20458;-79
2021/05/20 01:31:14;;;;;;;10.53;6.77;;;;;;;;;;5009460;28;20071;-79
2021/05/20 01:33:39;;;;;;;12.93;6.80;;;;;;;;;;5008772;28;20025;-79
2021/05/20 01:36:05;;;;;;;10.90;6.80;;;;;;;;;;5009173;28;20033;-79
2021/05/20 01:41:08;;;;;;;12.37;6.83;;;;;;;;;;5009820;28;20141;-79
2021/05/20 01:43:34;;;;;;;13.50;6.53;;;;;;;;;;5011188;28;20034;-79
2021/05/20 01:46:00;;;;;;;10.67;6.83;;;;;;;;;;5012021;28;20361;-79
2021/05/20 01:48:29;;;;;;;12.77;7.07;;;;;;;;;;5013140;28;20026;-81
2021/05/20 01:51:03;;;;;;;11.37;7.50;;;;;;;;;;5011284;28;20030;-81
2021/05/20 01:53:29;;;;;;;17.70;9.00;;;;;;;;;;5012658;28;20033;-81
2021/05/20 01:55:54;;;;;;;15.73;8.47;;;;;;;;;;5013003;28;20029;-81
2021/05/20 01:58:19;;;;;;;15.17;8.33;;;;;;;;;;5012263;28;20022;-81
2021/05/20 02:00:45;;;;;;;12.53;7.87;;;;;;;;;;5012497;28;20101;-81
2021/05/20 02:03:10;;;;;;;14.83;7.07;;;;;;;;;;5012583;28;20026;-81
2021/05/20 02:05:35;;;;;;;14.67;7.37;;;;;;;;;;5011305;28;20023;-81
2021/05/20 02:08:00;;;;;;;12.10;7.10;;;;;;;;;;5027624;28;20025;-81
2021/05/20 02:10:26;;;;;;;13.33;7.73;;;;;;;;;;5012518;28;20102;-82
2021/05/20 02:12:51;;;;;;;13.40;7.07;;;;;;;;;;5012554;28;20104;-81
2021/05/20 02:15:16;;;;;;;11.80;6.73;;;;;;;;;;5027513;28;20121;-81
2021/05/20 02:17:41;;;;;;;13.50;6.57;;;;;;;;;;5012544;28;20052;-81
2021/05/20 02:20:07;;;;;;;14.13;6.07;;;;;;;;;;5012770;28;20026;-82
2021/05/20 02:22:32;;;;;;;12.87;6.83;;;;;;;;;;5012442;28;20030;-82
2021/05/20 02:24:58;;;;;;;13.07;6.33;;;;;;;;;;5012367;28;20033;-81
2021/05/20 02:27:23;;;;;;;13.40;7.27;;;;;;;;;;5012387;28;20036;-81
2021/05/20 02:29:48;;;;;;;12.93;7.67;;;;;;;;;;5012201;28;20490;-81
2021/05/20 02:32:13;;;;;;;14.67;7.43;;;;;;;;;;5012270;28;20018;-81
2021/05/20 02:34:38;;;;;;;14.13;7.70;;;;;;;;;;5010802;28;20147;-81
2021/05/20 02:37:03;;;;;;;15.93;7.63;;;;;;;;;;5012008;28;20041;-81
2021/05/20 02:39:29;;;;;;;16.80;7.47;;;;;;;;;;5010747;28;20044;-81
2021/05/20 02:41:54;;;;;;;13.93;8.00;;;;;;;;;;5010682;28;20057;-82
2021/05/20 02:44:19;;;;;;;13.27;7.93;;;;;;;;;;5012069;28;20020;-81
2021/05/20 02:46:44;;;;;;;16.20;8.53;;;;;;;;;;5010686;28;20026;-81
2021/05/20 02:49:09;;;;;;;15.63;9.30;;;;;;;;;;5011872;28;20407;-81
2021/05/20 02:51:34;;;;;;;17.43;9.33;;;;;;;;;;5011881;28;20374;-81
2021/05/20 02:54:00;;;;;;;20.40;10.43;;;;;;;;;;5009393;28;20021;-81
2021/05/20 02:56:25;;;;;;;20.33;11.33;;;;;;;;;;5010739;28;20488;-81
2021/05/20 02:58:50;;;;;;;25.33;12.13;;;;;;;;;;5010660;28;20021;-81
2021/05/20 03:01:15;;;;;;;26.47;12.87;;;;;;;;;;5011721;28;20703;-82
2021/05/20 03:03:40;;;;;;;30.37;14.80;;;;;;;;;;5012073;28;20330;-81
2021/05/20 03:06:06;;;;;;;25.27;13.63;;;;;;;;;;5011548;28;20389;-81
2021/05/20 03:08:31;;;;;;;23.07;12.00;;;;;;;;;;5011926;28;20033;-81
2021/05/20 03:10:56;;;;;;;24.30;13.23;;;;;;;;;;5010184;28;20446;-82
2021/05/20 03:13:22;;;;;;;24.53;13.33;;;;;;;;;;5010314;28;20050;-82
2021/05/20 03:15:47;;;;;;;24.77;12.97;;;;;;;;;;5010316;28;20025;-82
2021/05/20 03:18:12;;;;;;;27.47;13.67;;;;;;;;;;5011993;28;20026;-82
2021/05/20 03:20:37;;;;;;;22.87;12.00;;;;;;;;;;5011827;28;20044;-81
2021/05/20 03:23:03;;;;;;;30.33;12.47;;;;;;;;;;5011325;28;20419;-82
2021/05/20 03:25:28;;;;;;;23.37;11.73;;;;;;;;;;5011523;28;20018;-81
2021/05/20 03:27:53;;;;;;;32.60;14.23;;;;;;;;;;5011784;28;20038;-82
2021/05/20 03:30:18;;;;;;;29.53;14.87;;;;;;;;;;5011018;28;20045;-81
2021/05/20 03:32:44;;;;;;;22.77;12.77;;;;;;;;;;5026544;28;20037;-81
2021/05/20 03:35:09;;;;;;;29.70;13.30;;;;;;;;;;5009986;28;20054;-81
2021/05/20 03:37:36;;;;;;;28.40;14.93;;;;;;;;;;5009624;28;20049;-81
2021/05/20 03:40:02;;;;;;;38.53;17.33;;;;;;;;;;5011126;28;20101;-81
2021/05/20 03:42:27;;;;;;;43.40;19.80;;;;;;;;;;5010483;28;20096;-81
2021/05/20 03:44:53;;;;;;;36.90;17.90;;;;;;;;;;5026284;28;20449;-81
2021/05/20 03:47:18;;;;;;;30.63;16.70;;;;;;;;;;5009638;28;20128;-81
2021/05/20 03:49:43;;;;;;;35.30;16.60;;;;;;;;;;5009487;28;20117;-81
2021/05/20 03:52:08;;;;;;;37.77;17.93;;;;;;;;;;5009404;28;20029;-81
2021/05/20 03:54:39;;;;;;;34.77;16.37;;;;;;;;;;5010635;28;20100;-81
2021/05/20 03:57:04;;;;;;;36.33;18.30;;;;;;;;;;5010967;28;20465;-81
2021/05/20 03:59:29;;;;;;;35.63;18.73;;;;;;;;;;5010467;28;20089;-81
2021/05/20 04:01:54;;;;;;;34.73;18.23;;;;;;;;;;5010757;28;20014;-81
2021/05/20 04:04:20;;;;;;;33.33;17.27;;;;;;;;;;5010290;28;20033;-81
2021/05/20 04:06:45;;;;;;;37.83;17.93;;;;;;;;;;5010303;28;20107;-81
2021/05/20 04:09:10;;;;;;;37.87;19.10;;;;;;;;;;5024610;28;20025;-81
2021/05/20 04:11:35;;;;;;;34.53;18.60;;;;;;;;;;5009294;28;20010;-81
2021/05/20 04:14:00;;;;;;;43.63;20.47;;;;;;;;;;5008110;28;20022;-81
2021/05/20 04:16:25;;;;;;;32.93;17.73;;;;;;;;;;5008918;28;20154;-81
2021/05/20 04:18:51;;;;;;;31.03;16.17;;;;;;;;;;5008148;28;20071;-81
2021/05/20 04:21:16;;;;;;;36.47;17.27;;;;;;;;;;5008749;28;20030;-81
2021/05/20 04:23:45;;;;;;;37.70;18.57;;;;;;;;;;5009041;28;20029;-82
2021/05/20 04:26:11;;;;;;;44.93;20.83;;;;;;;;;;5008951;28;20022;-81
2021/05/20 04:28:36;;;;;;;43.20;20.60;;;;;;;;;;5008474;28;20018;-81
2021/05/20 04:31:01;;;;;;;36.37;18.47;;;;;;;;;;5008716;28;20053;-82
2021/05/20 04:33:26;;;;;;;39.83;19.40;;;;;;;;;;5009207;28;20026;-82
2021/05/20 04:35:52;;;;;;;46.53;21.33;;;;;;;;;;5009957;28;20021;-82
2021/05/20 04:38:17;;;;;;;45.17;20.90;;;;;;;;;;5010106;28;20033;-82
2021/05/20 04:40:42;;;;;;;53.90;24.20;;;;;;;;;;5008490;28;20014;-81
2021/05/20 04:43:08;;;;;;;62.07;25.83;;;;;;;;;;5010165;28;20103;-81
2021/05/20 04:45:34;;;;;;;60.37;28.23;;;;;;;;;;5008518;28;20029;-81
2021/05/20 04:47:59;;;;;;;64.07;27.27;;;;;;;;;;5010013;28;20006;-81
2021/05/20 04:50:24;;;;;;;59.30;28.20;;;;;;;;;;5009978;28;20022;-81
2021/05/20 04:52:50;;;;;;;81.40;37.87;;;;;;;;;;5008545;28;20496;-81
2021/05/20 04:55:15;;;;;;;87.67;43.30;;;;;;;;;;5009698;28;20063;-81
2021/05/20 04:57:41;;;;;;;71.70;34.13;;;;;;;;;;5008718;28;20026;-82
2021/05/20 05:00:07;;;;;;;66.97;31.67;;;;;;;;;;5009779;28;20018;-81
2021/05/20 05:02:33;;;;;;;60.53;29.77;;;;;;;;;;5010002;28;20025;-82
2021/05/20 05:04:58;;;;;;;64.70;30.37;;;;;;;;;;5009589;28;20442;-81
2021/05/20 05:07:23;;;;;;;63.07;28.83;;;;;;;;;;5008503;28;20429;-82
2021/05/20 05:09:48;;;;;;;63.90;30.20;;;;;;;;;;5009452;28;20041;-81
2021/05/20 05:12:13;;;;;;;58.30;28.00;;;;;;;;;;5009683;28;20054;-81
2021/05/20 05:14:38;;;;;;;52.40;24.93;;;;;;;;;;5009143;28;21571;-81
2021/05/20 05:17:04;;;;;;;52.73;27.50;;;;;;;;;;5010480;28;20018;-82
2021/05/20 05:19:29;;;;;;;57.87;29.53;;;;;;;;;;5011831;28;20106;-81
2021/05/20 05:21:56;;;;;;;51.53;26.17;;;;;;;;;;5011817;28;20010;-82
2021/05/20 05:24:21;;;;;;;55.47;27.33;;;;;;;;;;5011823;28;20037;-82
2021/05/20 05:26:46;;;;;;;53.73;24.77;;;;;;;;;;5011632;28;20014;-81
2021/05/20 05:29:12;;;;;;;58.63;27.67;;;;;;;;;;5012271;28;20033;-82
2021/05/20 05:31:37;;;;;;;52.13;25.33;;;;;;;;;;5012987;28;20026;-81
2021/05/20 05:34:03;;;;;;;53.83;26.63;;;;;;;;;;5011287;28;20125;-82
2021/05/20 05:36:28;;;;;;;48.80;24.60;;;;;;;;;;5011662;28;20010;-81
2021/05/20 05:38:54;;;;;;;53.63;25.87;;;;;;;;;;5011405;28;20022;-82
2021/05/20 05:41:19;;;;;;;45.83;24.70;;;;;;;;;;5012931;28;20014;-81
2021/05/20 05:43:44;;;;;;;48.40;22.80;;;;;;;;;;5011336;28;20468;-82
2021/05/20 05:46:09;;;;;;;53.03;22.80;;;;;;;;;;5012731;28;20025;-82
2021/05/20 05:48:35;;;;;;;45.42;22.58;;;;;;;;;;5012895;28;20033;-81
2021/05/20 05:51:01;;;;;;;48.22;25.05;;;;;;;;;;5010880;28;20040;-82
2021/05/20 05:53:26;;;;;;;44.97;24.27;;;;;;;;;;5011486;28;20436;-78
2021/05/20 05:55:52;;;;;;;55.30;26.47;;;;;;;;;;5011752;28;20481;-78
2021/05/20 05:58:17;;;;;;;49.78;25.20;;;;;;;;;;5030150;28;20026;-78
2021/05/20 06:00:43;;;;;;;44.38;21.95;;;;;;;;;;5046408;28;20023;-78
2021/05/20 06:03:08;;;;;;;44.25;23.55;;;;;;;;;;5012342;28;20014;-79
2021/05/20 06:05:33;;;;;;;43.70;23.45;;;;;;;;;;5043917;28;20361;-79
2021/05/20 06:07:58;;;;;;;47.33;23.63;;;;;;;;;;5024058;28;20057;-79
2021/05/20 06:10:23;;;;;;;44.25;24.35;;;;;;;;;;5065787;28;20484;-79
2021/05/20 06:12:49;;;;;;;47.53;26.05;;;;;;;;;;5012251;28;20035;-78
2021/05/20 06:15:14;;;;;;;48.95;26.20;;;;;;;;;;5072761;28;20022;-79
2021/05/20 06:17:39;;;;;;;48.85;25.48;;;;;;;;;;5012171;28;20473;-78
2021/05/20 06:20:05;;;;;;;48.75;24.60;;;;;;;;;;5011791;28;20026;-79
2021/05/20 06:22:31;;;;;;;52.03;29.25;;;;;;;;;;5029864;27;20113;-79
2021/05/20 06:24:56;;;;;;;49.67;27.05;;;;;;;;;;5011022;28;20533;-79
2021/05/20 06:27:25;;;;;;;48.95;26.80;;;;;;;;;;5059328;28;20037;-78
2021/05/20 06:29:51;;;;;;;52.83;28.58;;;;;;;;;;5082118;28;20015;-78
2021/05/20 06:32:16;;;;;;;50.30;27.52;;;;;;;;;;5044940;28;20064;-79
2021/05/20 06:34:41;;;;;;;51.88;29.83;;;;;;;;;;5053444;28;20019;-78
2021/05/20 06:37:06;;;;;;;55.10;29.90;;;;;;;;;;5095793;28;20020;-79
2021/05/20 06:39:31;;;;;;;57.97;30.48;;;;;;;;;;5017408;28;20545;-79
2021/05/20 06:41:57;;;;;;;53.60;31.48;;;;;;;;;;5012156;28;20036;-78
2021/05/20 06:44:22;;;;;;;56.22;31.38;;;;;;;;;;5038381;28;20022;-78
2021/05/20 06:46:48;;;;;;;52.05;31.70;;;;;;;;;;5011647;28;20030;-79
2021/05/20 06:49:13;;;;;;;53.65;30.48;;;;;;;;;;5078960;28;20050;-79
2021/05/20 06:51:39;;;;;;;55.47;27.80;;;;;;;;;;5011658;28;20057;-78
2021/05/20 06:54:04;;;;;;;50.75;29.05;;;;;;;;;;5011142;28;20029;-78
2021/05/20 06:56:30;;;;;;;57.30;30.92;;;;;;;;;;5011554;28;20516;-79
2021/05/20 07:01:45;;;;;;;56.70;30.15;;;;;;;;;;5011729;28;20029;-79
2021/05/20 07:04:11;;;;;;;45.97;27.42;;;;;;;;;;5018718;28;20090;-79
2021/05/20 07:06:36;;;;;;;53.92;28.30;;;;;;;;;;5034983;28;20112;-78
2021/05/20 07:09:01;;;;;;;47.25;28.05;;;;;;;;;;5008590;28;20033;-79
2021/05/20 07:11:29;;;;;;;48.88;27.55;;;;;;;;;;5004045;28;20064;-78
2021/05/20 07:13:54;;;;;;;47.85;25.98;;;;;;;;;;5046851;28;20019;-79
2021/05/20 07:16:19;;;;;;;45.10;24.85;;;;;;;;;;5028697;28;20071;-78
2021/05/20 07:18:44;;;;;;;42.95;25.45;;;;;;;;;;5037986;28;20804;-79
2021/05/20 07:21:10;;;;;;;41.63;24.00;;;;;;;;;;5010636;28;20025;-79
2021/05/20 07:23:35;;;;;;;37.45;21.80;;;;;;;;;;5010848;28;20154;-79
2021/05/20 07:26:00;;;;;;;39.88;23.05;;;;;;;;;;5010989;28;20063;-79
2021/05/20 07:28:25;;;;;;;36.33;22.75;;;;;;;;;;5009410;28;20022;-79
2021/05/20 07:30:50;;;;;;;33.38;19.73;;;;;;;;;;5008937;28;20104;-78
2021/05/20 07:33:16;;;;;;;33.22;19.98;;;;;;;;;;5010832;28;20021;-79
2021/05/20 07:35:41;;;;;;;30.52;17.27;;;;;;;;;;5010366;28;20021;-78
2021/05/20 07:38:06;;;;;;;32.20;17.25;;;;;;;;;;5010593;28;20063;-79
2021/05/20 07:40:31;;;;;;;30.10;16.42;;;;;;;;;;5008146;28;20061;-79
2021/05/20 07:42:57;;;;;;;29.92;15.57;;;;;;;;;;5010730;28;20082;-79
2021/05/20 07:45:22;;;;;;;26.50;16.92;;;;;;;;;;5010311;28;20018;-78
2021/05/20 07:47:48;;;;;;;30.40;13.88;;;;;;;;;;5010380;28;20048;-79
2021/05/20 07:50:14;;;;;;;24.67;13.98;;;;;;;;;;5010678;28;20029;-79
2021/05/20 07:52:39;;;;;;;26.67;13.82;;;;;;;;;;5010084;28;20017;-78
2021/05/20 07:55:06;;;;;;;24.02;15.75;;;;;;;;;;5010553;28;20377;-79
2021/05/20 07:57:31;;;;;;;17.08;10.75;;;;;;;;;;5025726;28;20033;-79
2021/05/20 07:59:56;;;;;;;20.45;12.40;;;;;;;;;;5009042;28;20441;-79
2021/05/20 08:04:52;;;;;;;17.17;9.30;;;;;;;;;;5010327;28;20033;-79
2021/05/20 08:09:49;;;;;;;20.45;12.30;;;;;;;;;;5008498;28;20029;-79
2021/05/20 08:12:14;;;;;;;17.42;11.27;;;;;;;;;;5060351;28;20020;-79
2021/05/20 08:14:39;;;;;;;17.88;10.70;;;;;;;;;;5045769;28;20533;-79
2021/05/20 08:17:07;;;;;;;13.27;8.02;;;;;;;;;;5009276;28;20039;-79
2021/05/20 08:19:32;;;;;;;14.55;9.43;;;;;;;;;;5047878;28;20431;-79
2021/05/20 08:21:57;;;;;;;17.30;9.63;;;;;;;;;;5007747;28;20035;-79
2021/05/20 08:24:22;;;;;;;16.08;8.73;;;;;;;;;;5045041;28;20023;-79
2021/05/20 08:26:47;;;;;;;16.50;8.15;;;;;;;;;;5073917;28;20093;-79
2021/05/20 08:29:13;;;;;;;15.82;7.53;;;;;;;;;;5035783;28;20303;-79
2021/05/20 08:31:38;;;;;;;12.57;7.95;;;;;;;;;;5006441;28;20014;-79
2021/05/20 08:34:03;;;;;;;11.10;6.45;;;;;;;;;;5008482;28;20445;-78
2021/05/20 08:36:28;;;;;;;9.82;6.47;;;;;;;;;;5010714;28;20025;-79
2021/05/20 08:38:54;;;;;;;11.05;6.80;;;;;;;;;;5007241;28;20017;-79
2021/05/20 08:41:20;;;;;;;10.07;6.35;;;;;;;;;;5006930;28;20014;-79
2021/05/20 08:43:46;;;;;;;15.23;6.63;;;;;;;;;;5010680;28;20361;-79
2021/05/20 08:46:11;;;;;;;11.75;6.40;;;;;;;;;;5001739;28;20022;-79
2021/05/20 08:48:36;;;;;;;8.95;5.53;;;;;;;;;;5007671;28;20025;-79
2021/05/20 08:51:02;;;;;;;15.00;6.35;;;;;;;;;;5005939;28;20025;-79
2021/05/20 08:53:27;;;;;;;9.32;5.80;;;;;;;;;;5008343;28;20018;-79
2021/05/20 08:55:52;;;;;;;10.13;6.10;;;;;;;;;;5007189;28;20037;-79
2021/05/20 08:58:22;;;;;;;12.05;5.47;;;;;;;;;;5051650;28;20035;-79
2021/05/20 09:00:47;;;;;;;11.05;6.53;;;;;;;;;;5033080;28;20026;-79
2021/05/20 09:03:13;;;;;;;10.80;4.72;;;;;;;;;;5008757;28;20388;-79
2021/05/20 09:05:39;;;;;;;8.02;5.03;;;;;;;;;;5010470;28;20038;-80
2021/05/20 09:08:10;;;;;;;8.30;4.70;;;;;;;;;;5013929;28;20525;-80
2021/05/20 09:10:36;;;;;;;11.02;4.82;;;;;;;;;;5049647;28;20108;-79
2021/05/20 09:13:03;;;;;;;11.68;5.30;;;;;;;;;;5007052;28;20117;-82
2021/05/20 09:15:36;;;;;;;9.63;4.28;;;;;;;;;;5040375;28;20026;-80
2021/05/20 09:18:10;;;;;;;9.48;4.25;;;;;;;;;;5004998;28;20480;-80
2021/05/20 09:20:40;;;;;;;9.98;5.00;;;;;;;;;;5016071;28;20026;-80
2021/05/20 09:23:15;;;;;;;10.38;5.57;;;;;;;;;;5004185;28;20033;-80
2021/05/20 09:25:42;;;;;;;12.93;5.40;;;;;;;;;;5008937;28;20026;-80
2021/05/20 09:28:09;;;;;;;7.53;5.32;;;;;;;;;;5009873;28;20052;-80
2021/05/20 09:30:38;;;;;;;10.02;5.25;;;;;;;;;;5007777;28;20014;-80
2021/05/20 09:33:08;;;;;;;7.43;4.75;;;;;;;;;;5039971;28;20034;-80
2021/05/20 09:35:37;;;;;;;7.95;4.30;;;;;;;;;;5015101;28;20057;-80
2021/05/20 09:38:03;;;;;;;6.45;3.42;;;;;;;;;;5007938;28;20067;-80
2021/05/20 09:40:32;;;;;;;11.27;5.45;;;;;;;;;;5008952;28;20449;-80
2021/05/20 09:42:58;;;;;;;10.13;5.72;;;;;;;;;;5009172;28;20041;-80
2021/05/20 09:45:24;;;;;;;12.02;5.30;;;;;;;;;;5008871;28;20029;-80
2021/05/20 09:47:51;;;;;;;8.70;5.47;;;;;;;;;;5009065;28;20033;-80
2021/05/20 09:50:19;;;;;;;10.52;5.85;;;;;;;;;;5009098;28;20054;-80
2021/05/20 09:52:44;;;;;;;11.40;6.47;;;;;;;;;;5007508;28;20110;-80
2021/05/20 09:55:16;;;;;;;11.82;5.80;;;;;;;;;;5007505;28;20129;-80
2021/05/20 09:57:42;;;;;;;11.38;5.65;;;;;;;;;;5008921;28;20373;-80
2021/05/20 10:00:11;;;;;;;8.52;4.72;;;;;;;;;;5007317;28;20041;-80
2021/05/20 10:02:38;;;;;;;9.38;5.15;;;;;;;;;;5008989;28;20030;-80
2021/05/20 10:05:23;;;;;;;8.07;4.45;;;;;;;;;;5011915;28;20381;-80
2021/05/20 10:07:49;;;;;;;9.27;5.85;;;;;;;;;;5037595;28;20457;-80
2021/05/20 10:10:14;;;;;;;10.02;5.55;;;;;;;;;;5020595;28;20055;-79
2021/05/20 10:12:43;;;;;;;12.15;5.07;;;;;;;;;;5011820;28;20026;-80
2021/05/20 10:15:09;;;;;;;9.48;4.15;;;;;;;;;;5011811;28;20467;-80
2021/05/20 10:17:35;;;;;;;12.05;4.65;;;;;;;;;;5012057;28;20027;-80
2021/05/20 10:20:01;;;;;;;6.75;3.58;;;;;;;;;;5010400;28;20049;-79
2021/05/20 10:22:26;;;;;;;5.88;3.15;;;;;;;;;;5011797;28;20029;-79
2021/05/20 10:24:52;;;;;;;9.65;6.22;;;;;;;;;;5011757;28;20022;-79
2021/05/20 10:27:17;;;;;;;10.90;5.47;;;;;;;;;;5011819;28;20022;-79
2021/05/20 10:29:43;;;;;;;11.52;6.25;;;;;;;;;;5015582;28;20057;-78
2021/05/20 10:32:08;;;;;;;11.18;5.82;;;;;;;;;;5017193;28;21361;-79
2021/05/20 10:34:33;;;;;;;17.05;6.68;;;;;;;;;;5008457;28;20065;-79
2021/05/20 10:37:05;;;;;;;9.27;5.15;;;;;;;;;;5018409;28;20093;-79
2021/05/20 10:39:30;;;;;;;8.45;4.88;;;;;;;;;;5011454;28;20066;-79
2021/05/20 10:41:56;;;;;;;8.57;5.47;;;;;;;;;;5011338;28;20041;-79
2021/05/20 10:44:22;;;;;;;11.73;5.03;;;;;;;;;;5011418;28;20052;-79
2021/05/20 10:46:56;;;;;;;14.07;5.07;;;;;;;;;;5011577;28;20041;-79
2021/05/20 10:49:42;;;;;;;11.13;5.07;;;;;;;;;;5023273;28;20015;-79
2021/05/20 10:52:27;;;;;;;8.40;4.68;;;;;;;;;;5024322;28;20467;-79
2021/05/20 10:55:03;;;;;;;12.65;4.57;;;;;;;;;;5011689;28;20022;-79
2021/05/20 10:57:47;;;;;;;7.05;4.25;;;;;;;;;;5011188;28;20025;-79
2021/05/20 11:00:30;;;;;;;7.50;4.80;;;;;;;;;;5059783;28;20022;-79
2021/05/20 11:02:55;;;;;;;6.15;3.92;;;;;;;;;;5011245;28;20010;-79
2021/05/20 11:05:39;;;;;;;6.07;3.83;;;;;;;;;;5026872;28;20024;-79
2021/05/20 11:08:07;;;;;;;9.50;4.70;;;;;;;;;;5045715;28;20049;-79
2021/05/20 11:10:36;;;;;;;5.45;3.85;;;;;;;;;;5053651;28;20550;-79
2021/05/20 11:13:01;;;;;;;10.13;4.63;;;;;;;;;;5021730;28;20025;-79
2021/05/20 11:15:26;;;;;;;6.60;4.03;;;;;;;;;;5031212;28;20016;-79
2021/05/20 11:17:51;;;;;;;12.98;4.75;;;;;;;;;;5063057;28;20375;-79
2021/05/20 11:20:31;;;;;;;10.07;3.58;;;;;;;;;;5039929;28;20014;-79
2021/05/20 11:23:17;;;;;;;8.93;3.83;;;;;;;;;;5011049;28;20420;-79
2021/05/20 11:25:43;;;;;;;7.93;3.42;;;;;;;;;;5019595;28;20022;-79
2021/05/20 11:28:08;;;;;;;7.30;2.90;;;;;;;;;;5046422;28;20058;-79
2021/05/20 11:30:33;;;;;;;8.57;3.33;;;;;;;;;;5068132;28;20018;-79
2021/05/20 11:33:00;;;;;;;5.85;3.25;;;;;;;;;;5011008;28;20014;-79
2021/05/20 11:35:42;;;;;;;7.65;3.25;;;;;;;;;;5020768;28;20018;-79
2021/05/20 11:38:22;;;;;;;5.82;3.40;;;;;;;;;;5027579;28;20039;-79
2021/05/20 11:40:47;;;;;;;9.25;2.97;;;;;;;;;;5067612;28;20072;-80
2021/05/20 11:43:12;;;;;;;11.68;3.30;;;;;;;;;;5087517;28;20091;-79
2021/05/20 11:45:37;;;;;;;3.88;2.30;;;;;;;;;;5041356;28;20026;-79
2021/05/20 11:48:03;;;;;;;4.18;2.88;;;;;;;;;;5032575;28;20481;-80
2021/05/20 11:50:29;;;;;;;6.55;2.90;;;;;;;;;;5069043;28;20356;-79
2021/05/20 11:52:54;;;;;;;6.15;2.15;;;;;;;;;;5025579;28;20473;-79
2021/05/20 11:55:21;;;;;;;3.30;2.00;;;;;;;;;;5013824;28;20074;-79
2021/05/20 11:57:47;;;;;;;5.40;2.50;;;;;;;;;;5011394;28;20501;-79
2021/05/20 12:00:13;;;;;;;7.18;2.40;;;;;;;;;;5053070;28;20014;-80
2021/05/20 12:02:39;;;;;;;5.13;2.45;;;;;;;;;;5022966;28;20022;-79
2021/05/20 12:05:05;;;;;;;5.55;1.80;;;;;;;;;;5017953;28;20485;-78
2021/05/20 12:07:32;;;;;;;3.35;1.83;;;;;;;;;;5081484;28;20031;-78
2021/05/20 12:10:16;;;;;;;4.88;1.92;;;;;;;;;;5057858;28;20362;-78
2021/05/20 12:12:43;;;;;;;4.60;1.67;;;;;;;;;;5076112;28;20028;-78
2021/05/20 12:15:15;;;;;;;4.18;2.42;;;;;;;;;;5017251;28;20105;-79
2021/05/20 12:17:41;;;;;;;5.03;1.63;;;;;;;;;;5032641;28;20030;-78
2021/05/20 12:20:07;;;;;;;3.95;1.88;;;;;;;;;;5061358;28;20022;-78
2021/05/20 12:22:32;;;;;;;3.63;1.83;;;;;;;;;;5008779;28;20018;-78
2021/05/20 12:24:59;;;;;;;4.03;1.75;;;;;;;;;;5008500;28;20392;-78
2021/05/20 12:27:27;;;;;;;5.15;2.00;;;;;;;;;;5016242;28;20391;-78
2021/05/20 12:29:54;;;;;;;4.00;2.03;;;;;;;;;;5009917;28;20138;-79
2021/05/20 12:32:39;;;;;;;5.35;1.70;;;;;;;;;;5062235;28;20029;-78
2021/05/20 12:35:07;;;;;;;3.95;2.08;;;;;;;;;;5009779;28;20022;-78
2021/05/20 12:38:02;;;;;;;3.15;1.98;;;;;;;;;;5015441;28;20075;-78
2021/05/20 12:40:30;;;;;;;3.35;2.03;;;;;;;;;;5015501;27;20079;-79
2021/05/20 12:43:06;;;;;;;2.95;1.65;;;;;;;;;;5020924;28;20380;-78
2021/05/20 12:45:32;;;;;;;3.80;1.48;;;;;;;;;;5024557;28;20026;-78
2021/05/20 12:47:58;;;;;;;3.50;1.63;;;;;;;;;;5026367;28;20064;-78
2021/05/20 12:50:27;;;;;;;3.95;1.50;;;;;;;;;;5009646;28;20411;-78
2021/05/20 12:52:52;;;;;;;2.95;1.42;;;;;;;;;;5024634;28;20104;-78
2021/05/20 12:55:18;;;;;;;5.25;1.23;;;;;;;;;;5032347;28;20105;-80
2021/05/20 12:58:02;;;;;;;3.60;1.45;;;;;;;;;;5012191;28;20021;-79
2021/05/20 13:00:28;;;;;;;4.38;1.38;;;;;;;;;;5016111;28;20071;-80
2021/05/20 13:03:00;;;;;;;3.03;0.90;;;;;;;;;;5014984;28;20022;-79
2021/05/20 13:05:27;;;;;;;4.88;1.27;;;;;;;;;;5013028;28;20026;-80
2021/05/20 13:07:53;;;;;;;2.63;1.30;;;;;;;;;;5039971;28;20029;-80
2021/05/20 13:10:31;;;;;;;2.78;1.00;;;;;;;;;;5021209;28;20037;-79
2021/05/20 13:12:56;;;;;;;7.70;1.10;;;;;;;;;;5004702;28;20022;-80
2021/05/20 13:15:21;;;;;;;6.10;0.90;;;;;;;;;;5006700;28;20045;-80
2021/05/20 13:22:11;;;;;;;0.95;0.70;;;;;;;;;;5007762;28;20488;-80
2021/05/20 13:23:24;;;;;;;3.63;0.90;;;;;;;;;;5008040;28;20138;-79
2021/05/20 13:25:49;;;;;;;2.88;1.00;;;;;;;;;;5008022;28;20120;-79
2021/05/20 13:28:14;;;;;;;2.78;0.88;;;;;;;;;;5006562;28;20112;-80
2021/05/20 13:30:46;;;;;;;2.28;1.48;;;;;;;;;;5007304;28;20032;-79
2021/05/20 13:33:13;;;;;;;2.28;0.63;;;;;;;;;;5009343;28;20102;-80
2021/05/20 13:35:39;;;;;;;1.48;0.80;;;;;;;;;;5070604;28;20036;-80
2021/05/20 13:38:04;;;;;;;5.22;0.90;;;;;;;;;;5016510;28;20022;-80
2021/05/20 13:40:30;;;;;;;8.63;1.00;;;;;;;;;;5009124;28;20412;-80
2021/05/20 13:42:56;;;;;;;4.80;0.98;;;;;;;;;;5018705;28;20059;-79
2021/05/20 13:45:22;;;;;;;2.55;0.85;;;;;;;;;;5032084;28;20527;-80
2021/05/20 13:47:48;;;;;;;4.60;0.95;;;;;;;;;;5011335;28;20465;-79
2021/05/20 13:50:14;;;;;;;6.07;1.00;;;;;;;;;;5027734;28;20086;-79
2021/05/20 13:52:41;;;;;;;2.25;0.85;;;;;;;;;;5010027;28;20375;-79
2021/05/20 13:55:07;;;;;;;4.22;1.00;;;;;;;;;;5011186;28;20045;-79
2021/05/20 13:57:33;;;;;;;2.60;1.00;;;;;;;;;;5011006;28;20018;-79
2021/05/20 13:59:58;;;;;;;3.25;1.02;;;;;;;;;;5048551;28;20026;-79
2021/05/20 14:02:31;;;;;;;2.53;1.15;;;;;;;;;;5041955;28;20423;-79
2021/05/20 14:04:56;;;;;;;5.22;0.75;;;;;;;;;;5011221;28;20030;-80
2021/05/20 14:07:22;;;;;;;2.25;0.73;;;;;;;;;;5012911;28;20030;-79
2021/05/20 14:09:48;;;;;;;4.05;0.70;;;;;;;;;;5074886;28;20025;-79
2021/05/20 14:12:15;;;;;;;6.40;0.70;;;;;;;;;;5003105;28;20025;-80
2021/05/20 14:14:40;;;;;;;1.77;0.60;;;;;;;;;;5011896;28;20038;-79
2021/05/20 14:17:06;;;;;;;3.38;0.98;;;;;;;;;;5010876;28;20026;-79
2021/05/20 14:19:31;;;;;;;3.85;1.10;;;;;;;;;;5011846;28;20022;-79
2021/05/20 14:22:01;;;;;;;10.63;0.88;;;;;;;;;;5012223;28;20119;-79
2021/05/20 14:24:26;;;;;;;5.38;0.75;;;;;;;;;;5011775;28;20018;-80
2021/05/20 14:26:51;;;;;;;9.05;0.82;;;;;;;;;;5018771;28;20121;-79
2021/05/20 14:29:17;;;;;;;4.35;0.98;;;;;;;;;;5011673;28;20030;-79
2021/05/20 14:31:42;;;;;;;5.13;1.13;;;;;;;;;;5012163;28;20058;-79
2021/05/20 14:34:07;;;;;;;5.72;1.10;;;;;;;;;;5011764;28;20036;-78
2021/05/20 14:36:34;;;;;;;4.07;1.05;;;;;;;;;;5010566;28;20029;-79
2021/05/20 14:38:59;;;;;;;4.80;1.05;;;;;;;;;;5018400;28;20104;-79
2021/05/20 14:41:24;;;;;;;2.20;1.00;;;;;;;;;;5036814;28;20110;-79